createdAt,value
2023-02-13T00:00:02.319Z,5.40
2023-02-13T00:02:29.011Z,5.40
2023-02-13T00:04:55.645Z,5.30
2023-02-13T00:07:22.250Z,5.30
2023-02-13T00:09:48.927Z,5.30
2023-02-13T00:12:15.550Z,5.20
2023-02-13T00:14:42.186Z,5.30
2023-02-13T00:17:08.935Z,5.20
2023-02-13T00:19:35.600Z,5.20
2023-02-13T00:22:02.297Z,5.20
2023-02-13T00:24:28.943Z,5.10
2023-02-13T00:26:55.605Z,5.10
2023-02-13T00:29:22.271Z,5.10
2023-02-13T00:31:49.009Z,5.10
2023-02-13T00:34:15.736Z,5.00
2023-02-13T00:36:42.450Z,5.00
2023-02-13T00:39:11.547Z,5.00
2023-02-13T00:41:39.118Z,4.90
2023-02-13T00:44:05.853Z,4.90
2023-02-13T00:46:32.625Z,4.90
2023-02-13T00:48:59.319Z,4.90
2023-02-13T00:51:25.983Z,4.80
2023-02-13T00:53:52.646Z,4.80
2023-02-13T00:56:19.272Z,4.80
2023-02-13T00:58:46.277Z,4.80
2023-02-13T01:01:12.982Z,4.70
2023-02-13T01:03:40.058Z,4.70
2023-02-13T01:06:07.502Z,4.60
2023-02-13T01:08:34.630Z,4.70
2023-02-13T01:11:01.346Z,4.50
2023-02-13T01:13:27.983Z,4.30
2023-02-13T01:15:54.817Z,2.80
2023-02-13T01:18:21.498Z,4.50
2023-02-13T01:21:01.041Z,4.50
2023-02-13T01:23:34.994Z,5.00
2023-02-13T01:26:04.307Z,4.40
2023-02-13T01:28:31.024Z,4.40
2023-02-13T01:30:58.764Z,4.30
2023-02-13T01:33:27.802Z,4.30
2023-02-13T01:35:54.870Z,4.30
2023-02-13T01:38:21.707Z,4.20
2023-02-13T01:40:52.803Z,4.20
2023-02-13T01:43:23.334Z,4.20
2023-02-13T01:45:53.680Z,4.20
2023-02-13T01:48:24.078Z,4.10
2023-02-13T01:51:14.774Z,4.10
2023-02-13T01:53:50.362Z,4.10
2023-02-13T01:56:38.823Z,4.10
2023-02-13T01:59:08.952Z,4.10
2023-02-13T02:01:36.818Z,4.00
2023-02-13T02:04:23.055Z,3.90
2023-02-13T02:06:55.675Z,3.90
2023-02-13T02:09:26.035Z,4.00
2023-02-13T02:11:59.362Z,4.00
2023-02-13T02:14:27.493Z,3.90
2023-02-13T02:16:54.279Z,3.90
2023-02-13T02:19:36.989Z,3.90
2023-02-13T02:22:09.519Z,3.90
2023-02-13T02:25:06.951Z,3.80
2023-02-13T02:27:41.541Z,3.80
2023-02-13T02:30:17.396Z,3.80
2023-02-13T02:33:01.813Z,3.80
2023-02-13T02:35:37.305Z,3.60
2023-02-13T02:38:40.137Z,3.60
2023-02-13T02:41:33.707Z,3.70
2023-02-13T02:44:09.147Z,3.70
2023-02-13T02:47:17.272Z,3.70
2023-02-13T02:50:01.944Z,3.60
2023-02-13T02:52:43.671Z,3.60
2023-02-13T02:55:26.404Z,3.60
2023-02-13T02:58:21.285Z,3.60
2023-02-13T03:01:08.091Z,3.60
2023-02-13T03:03:54.104Z,3.50
2023-02-13T03:06:28.128Z,3.40
2023-02-13T03:09:17.395Z,3.50
2023-02-13T03:12:09.971Z,3.50
2023-02-13T03:14:37.505Z,3.40
2023-02-13T03:17:24.106Z,3.40
2023-02-13T03:20:18.572Z,3.40
2023-02-13T03:23:07.296Z,3.40
2023-02-13T03:25:39.185Z,3.40
2023-02-13T03:28:47.294Z,3.40
2023-02-13T03:31:32.717Z,3.30
2023-02-13T03:34:06.461Z,3.20
2023-02-13T03:37:07.717Z,3.20
2023-02-13T03:39:43.311Z,3.20
2023-02-13T03:42:19.616Z,3.10
2023-02-13T03:45:19.789Z,3.10
2023-02-13T03:47:47.744Z,3.10
2023-02-13T03:50:15.262Z,3.00
2023-02-13T03:52:51.406Z,3.10
2023-02-13T03:56:00.926Z,3.10
2023-02-13T03:58:49.974Z,3.00
2023-02-13T04:01:19.283Z,2.90
2023-02-13T04:03:51.091Z,2.90
2023-02-13T04:06:24.883Z,2.80
2023-02-13T04:08:51.557Z,2.80
2023-02-13T04:11:24.135Z,2.80
2023-02-13T04:13:57.024Z,2.70
2023-02-13T04:16:40.155Z,2.70
2023-02-13T04:19:08.149Z,2.70
2023-02-13T04:21:35.780Z,2.70
2023-02-13T04:24:02.800Z,2.70
2023-02-13T04:26:43.090Z,2.60
2023-02-13T04:29:10.257Z,2.60
2023-02-13T04:31:37.126Z,2.60
2023-02-13T04:34:03.866Z,2.50
2023-02-13T04:36:30.790Z,2.50
2023-02-13T04:38:57.597Z,2.50
2023-02-13T04:41:24.383Z,2.50
2023-02-13T04:43:52.427Z,2.40
2023-02-13T04:46:19.211Z,2.40
2023-02-13T04:48:45.999Z,2.40
2023-02-13T04:51:12.820Z,2.40
2023-02-13T04:53:39.495Z,2.40
2023-02-13T04:56:06.352Z,2.40
2023-02-13T04:58:33.117Z,2.40
2023-02-13T05:01:00.101Z,2.30
2023-02-13T05:03:26.876Z,2.30
2023-02-13T05:05:53.562Z,2.30
2023-02-13T05:08:20.364Z,2.20
2023-02-13T05:10:47.221Z,2.20
2023-02-13T05:13:14.018Z,2.20
2023-02-13T05:15:40.696Z,2.20
2023-02-13T05:18:07.387Z,2.10
2023-02-13T05:20:34.078Z,2.10
2023-02-13T05:23:19.253Z,2.10
2023-02-13T05:25:45.879Z,2.00
2023-02-13T05:28:31.030Z,2.00
2023-02-13T05:30:58.147Z,2.00
2023-02-13T05:33:25.546Z,2.00
2023-02-13T05:35:52.169Z,2.00
2023-02-13T05:38:18.949Z,2.00
2023-02-13T05:40:45.728Z,1.90
2023-02-13T05:43:12.398Z,1.90
2023-02-13T05:45:39.006Z,1.90
2023-02-13T05:48:05.760Z,1.90
2023-02-13T05:50:32.380Z,1.90
2023-02-13T05:52:59.213Z,1.80
2023-02-13T05:55:25.866Z,1.80
2023-02-13T05:57:57.414Z,1.80
2023-02-13T06:00:24.536Z,1.80
2023-02-13T06:02:51.294Z,1.80
2023-02-13T06:05:17.998Z,1.80
2023-02-13T06:07:44.657Z,1.70
2023-02-13T06:10:11.595Z,1.70
2023-02-13T06:12:38.228Z,1.70
2023-02-13T06:15:05.624Z,0.30
2023-02-13T06:17:32.225Z,1.70
2023-02-13T06:19:58.844Z,1.60
2023-02-13T06:22:25.465Z,1.60
2023-02-13T06:24:52.166Z,1.60
2023-02-13T06:27:18.772Z,1.60
2023-02-13T06:29:45.655Z,1.60
2023-02-13T06:32:12.307Z,1.60
2023-02-13T06:34:39.137Z,1.50
2023-02-13T06:37:05.784Z,1.50
2023-02-13T06:39:32.559Z,1.50
2023-02-13T06:41:59.253Z,1.50
2023-02-13T06:44:25.901Z,1.40
2023-02-13T06:46:52.650Z,1.40
2023-02-13T06:49:19.580Z,1.40
2023-02-13T06:51:46.246Z,1.40
2023-02-13T06:54:12.902Z,0.50
2023-02-13T06:56:39.589Z,1.40
2023-02-13T06:59:06.344Z,1.40
2023-02-13T07:01:33.012Z,1.40
2023-02-13T07:03:59.798Z,1.40
2023-02-13T07:06:26.602Z,1.40
2023-02-13T07:08:55.864Z,1.40
2023-02-13T07:11:24.850Z,1.30
2023-02-13T07:13:51.500Z,1.30
2023-02-13T07:16:18.474Z,1.30
2023-02-13T07:18:45.278Z,1.30
2023-02-13T07:21:12.393Z,1.30
2023-02-13T07:23:39.152Z,1.30
2023-02-13T07:26:05.825Z,1.30
2023-02-13T07:28:32.785Z,1.30
2023-02-13T07:31:04.867Z,1.30
2023-02-13T07:33:32.914Z,1.30
2023-02-13T07:36:00.057Z,1.20
2023-02-13T07:38:26.744Z,1.20
2023-02-13T07:40:53.398Z,1.20
2023-02-13T07:43:20.120Z,1.20
2023-02-13T07:45:47.031Z,1.20
2023-02-13T07:48:13.937Z,1.20
2023-02-13T07:50:40.658Z,1.20
2023-02-13T07:53:07.877Z,1.20
2023-02-13T07:55:34.497Z,1.20
2023-02-13T07:58:01.814Z,1.20
2023-02-13T08:00:28.755Z,1.10
2023-02-13T08:02:55.402Z,1.20
2023-02-13T08:05:22.100Z,1.20
2023-02-13T08:07:48.906Z,1.20
2023-02-13T08:10:34.883Z,1.20
2023-02-13T08:13:01.534Z,1.20
2023-02-13T08:15:28.368Z,1.20
2023-02-13T08:17:55.092Z,1.20
2023-02-13T08:20:21.735Z,1.20
2023-02-13T08:22:48.385Z,1.20
2023-02-13T08:25:15.100Z,1.20
2023-02-13T08:27:41.819Z,1.30
2023-02-13T08:30:10.016Z,1.30
2023-02-13T08:32:52.844Z,1.40
2023-02-13T08:35:20.550Z,1.40
2023-02-13T08:37:47.716Z,1.40
2023-02-13T08:40:14.835Z,1.40
2023-02-13T08:42:41.639Z,1.40
2023-02-13T08:45:10.496Z,1.50
2023-02-13T08:47:40.525Z,1.40
2023-02-13T08:50:07.769Z,1.50
2023-02-13T08:52:34.608Z,1.50
2023-02-13T08:55:03.419Z,1.50
2023-02-13T08:57:31.111Z,1.60
2023-02-13T08:59:57.740Z,1.60
2023-02-13T09:02:24.540Z,1.70
2023-02-13T09:04:51.304Z,1.60
2023-02-13T09:07:17.973Z,1.70
2023-02-13T09:09:44.670Z,1.80
2023-02-13T09:12:11.341Z,1.80
2023-02-13T09:14:39.234Z,1.80
2023-02-13T09:17:06.161Z,1.80
2023-02-13T09:19:32.810Z,1.90
2023-02-13T09:21:59.587Z,1.90
2023-02-13T09:24:26.501Z,2.10
2023-02-13T09:26:53.126Z,2.10
2023-02-13T09:29:19.933Z,2.10
2023-02-13T09:31:46.825Z,2.20
2023-02-13T09:34:13.908Z,2.20
2023-02-13T09:36:40.556Z,2.30
2023-02-13T09:39:07.234Z,2.30
2023-02-13T09:41:37.227Z,2.40
2023-02-13T09:44:33.920Z,2.50
2023-02-13T09:47:08.137Z,2.50
2023-02-13T09:49:39.085Z,2.60
2023-02-13T09:52:05.904Z,2.70
2023-02-13T09:54:32.637Z,2.80
2023-02-13T09:57:08.172Z,2.90
2023-02-13T09:59:43.673Z,2.90
2023-02-13T10:02:44.473Z,3.10
2023-02-13T10:05:27.188Z,3.20
2023-02-13T10:08:09.795Z,3.30
2023-02-13T10:10:51.517Z,3.30
2023-02-13T10:14:06.448Z,3.50
2023-02-13T10:16:40.800Z,3.60
2023-02-13T10:19:33.393Z,3.70
2023-02-13T10:22:31.178Z,3.90
2023-02-13T10:25:03.435Z,4.00
2023-02-13T10:27:36.264Z,4.10
2023-02-13T10:30:09.298Z,4.20
2023-02-13T10:33:18.702Z,4.10
2023-02-13T10:36:10.145Z,4.20
2023-02-13T10:39:05.372Z,4.40
2023-02-13T10:42:13.507Z,4.50
2023-02-13T10:44:58.322Z,4.50
2023-02-13T10:47:44.157Z,4.50
2023-02-13T10:50:13.682Z,4.70
2023-02-13T10:52:57.689Z,4.70
2023-02-13T10:56:21.600Z,4.80
2023-02-13T10:58:50.990Z,4.90
2023-02-13T11:01:47.788Z,4.90
2023-02-13T11:04:17.891Z,5.10
2023-02-13T11:06:51.235Z,5.10
2023-02-13T11:09:17.943Z,5.20
2023-02-13T11:11:44.948Z,5.20
2023-02-13T11:14:14.781Z,7.10
2023-02-13T11:16:52.079Z,5.40
2023-02-13T11:19:39.562Z,5.40
2023-02-13T11:22:13.552Z,5.50
2023-02-13T11:24:52.150Z,5.60
2023-02-13T11:27:24.722Z,5.70
2023-02-13T11:29:57.072Z,5.70
2023-02-13T11:32:34.371Z,5.80
2023-02-13T11:35:30.922Z,5.90
2023-02-13T11:38:15.814Z,6.00
2023-02-13T11:40:52.037Z,6.10
2023-02-13T11:43:23.758Z,6.10
2023-02-13T11:46:07.740Z,6.20
2023-02-13T11:48:34.874Z,6.30
2023-02-13T11:51:01.683Z,6.30
2023-02-13T11:53:32.018Z,6.40
2023-02-13T11:56:10.794Z,6.50
2023-02-13T11:58:37.736Z,6.60
2023-02-13T12:01:10.632Z,6.60
2023-02-13T12:03:38.874Z,6.70
2023-02-13T12:06:15.623Z,6.80
2023-02-13T12:08:46.473Z,6.80
2023-02-13T12:11:35.719Z,7.00
2023-02-13T12:14:02.534Z,7.00
2023-02-13T12:16:41.263Z,7.10
2023-02-13T12:19:13.008Z,7.20
2023-02-13T12:21:45.433Z,7.20
2023-02-13T12:24:55.423Z,7.30
2023-02-13T12:27:45.958Z,7.40
2023-02-13T12:30:15.990Z,7.50
2023-02-13T12:32:55.665Z,7.60
2023-02-13T12:35:46.536Z,7.70
2023-02-13T12:38:22.177Z,7.70
2023-02-13T12:41:27.235Z,7.80
2023-02-13T12:44:06.035Z,7.90
2023-02-13T12:46:52.646Z,8.00
2023-02-13T12:49:53.934Z,8.10
2023-02-13T12:52:44.705Z,8.20
2023-02-13T12:55:35.456Z,8.30
2023-02-13T12:58:02.033Z,8.10
2023-02-13T13:00:49.078Z,8.40
2023-02-13T13:03:31.279Z,8.50
2023-02-13T13:06:35.657Z,8.70
2023-02-13T13:09:21.278Z,8.70
2023-02-13T13:12:01.885Z,8.90
2023-02-13T13:14:45.469Z,9.10
2023-02-13T13:17:39.482Z,9.10
2023-02-13T13:20:37.019Z,9.30
2023-02-13T13:23:18.033Z,9.40
2023-02-13T13:26:02.239Z,9.60
2023-02-13T13:28:36.473Z,9.70
2023-02-13T13:31:03.807Z,9.80
2023-02-13T13:33:31.286Z,9.90
2023-02-13T13:36:05.553Z,10.10
2023-02-13T13:38:52.479Z,10.20
2023-02-13T13:41:35.267Z,10.30
2023-02-13T13:44:20.180Z,10.50
2023-02-13T13:47:04.355Z,10.60
2023-02-13T13:49:54.027Z,10.70
2023-02-13T13:52:20.917Z,10.90
2023-02-13T13:54:51.532Z,11.10
2023-02-13T13:57:20.014Z,11.10
2023-02-13T13:59:51.572Z,11.30
2023-02-13T14:02:18.302Z,11.40
2023-02-13T14:05:09.380Z,11.50
2023-02-13T14:07:43.400Z,11.60
2023-02-13T14:10:21.876Z,11.70
2023-02-13T14:12:55.838Z,11.70
2023-02-13T14:15:34.882Z,11.80
2023-02-13T14:18:11.705Z,11.80
2023-02-13T14:20:41.778Z,11.90
2023-02-13T14:23:37.828Z,11.90
2023-02-13T14:26:16.011Z,12.00
2023-02-13T14:28:49.074Z,12.10
2023-02-13T14:31:34.710Z,12.10
2023-02-13T14:34:07.204Z,12.20
2023-02-13T14:36:39.756Z,12.20
2023-02-13T14:39:27.181Z,12.20
2023-02-13T14:41:56.803Z,12.20
2023-02-13T14:44:43.597Z,12.20
2023-02-13T14:47:31.915Z,12.20
2023-02-13T14:50:00.158Z,12.20
2023-02-13T14:52:29.896Z,12.20
2023-02-13T14:55:05.793Z,12.20
2023-02-13T14:57:43.147Z,12.20
2023-02-13T15:00:39.254Z,12.20
2023-02-13T15:03:28.293Z,12.10
2023-02-13T15:06:01.629Z,12.20
2023-02-13T15:08:35.949Z,12.20
2023-02-13T15:13:35.927Z,12.10
2023-02-13T15:16:08.771Z,12.10
2023-02-13T15:18:38.392Z,12.00
2023-02-13T15:21:05.328Z,12.00
2023-02-13T15:23:33.960Z,12.00
2023-02-13T15:26:06.132Z,12.00
2023-02-13T15:28:34.109Z,12.00
2023-02-13T15:31:22.201Z,12.30
2023-02-13T15:33:50.573Z,11.90
2023-02-13T15:36:21.188Z,11.90
2023-02-13T15:38:48.077Z,11.90
2023-02-13T15:41:20.276Z,11.80
2023-02-13T15:43:49.969Z,11.80
2023-02-13T15:46:24.830Z,11.80
2023-02-13T15:48:56.472Z,11.70
2023-02-13T15:51:25.476Z,11.80
2023-02-13T15:53:55.825Z,11.70
2023-02-13T15:56:23.310Z,11.70
2023-02-13T15:58:50.946Z,11.60
2023-02-13T16:01:17.933Z,11.60
2023-02-13T16:03:49.610Z,11.60
2023-02-13T16:06:17.998Z,11.50
2023-02-13T16:08:52.000Z,11.50
2023-02-13T16:11:32.655Z,11.50
2023-02-13T16:14:21.621Z,11.40
2023-02-13T16:17:13.056Z,11.40
2023-02-13T16:19:39.651Z,11.40
2023-02-13T16:22:17.616Z,11.40
2023-02-13T16:24:56.174Z,11.30
2023-02-13T16:27:28.445Z,11.30
2023-02-13T16:30:01.132Z,11.20
2023-02-13T16:32:30.327Z,11.20
2023-02-13T16:34:57.525Z,11.20
2023-02-13T16:37:28.000Z,11.20
2023-02-13T16:39:54.738Z,11.20
2023-02-13T16:42:21.436Z,11.10
2023-02-13T16:44:48.378Z,11.00
2023-02-13T16:47:24.161Z,11.10
2023-02-13T16:49:57.050Z,11.00
2023-02-13T16:52:27.629Z,11.00
2023-02-13T16:54:59.904Z,11.00
2023-02-13T16:57:32.340Z,10.90
2023-02-13T17:00:19.146Z,10.90
2023-02-13T17:02:46.980Z,10.90
2023-02-13T17:05:32.080Z,10.80
2023-02-13T17:08:01.504Z,10.80
2023-02-13T17:10:33.901Z,10.80
2023-02-13T17:13:13.014Z,10.70
2023-02-13T17:15:44.873Z,10.70
2023-02-13T17:18:11.578Z,10.60
2023-02-13T17:20:50.376Z,10.60
2023-02-13T17:23:22.436Z,10.60
2023-02-13T17:25:59.568Z,10.50
2023-02-13T17:28:33.245Z,10.40
2023-02-13T17:31:01.379Z,10.40
2023-02-13T17:33:30.683Z,10.40
2023-02-13T17:35:58.926Z,10.30
2023-02-13T17:38:25.595Z,10.30
2023-02-13T17:40:52.298Z,10.20
2023-02-13T17:43:19.877Z,10.10
2023-02-13T17:45:47.309Z,10.00
2023-02-13T17:48:14.079Z,10.00
2023-02-13T17:50:41.252Z,10.00
2023-02-13T17:53:16.299Z,9.90
2023-02-13T17:55:43.179Z,9.90
2023-02-13T17:58:09.820Z,9.80
2023-02-13T18:00:36.521Z,9.80
2023-02-13T18:03:04.080Z,9.70
2023-02-13T18:05:33.096Z,9.70
2023-02-13T18:08:02.631Z,9.70
2023-02-13T18:10:31.476Z,9.60
2023-02-13T18:13:03.976Z,9.60
2023-02-13T18:15:36.172Z,9.60
2023-02-13T18:18:03.139Z,9.50
2023-02-13T18:20:29.954Z,9.40
2023-02-13T18:22:56.608Z,9.40
2023-02-13T18:25:23.701Z,9.30
2023-02-13T18:27:50.791Z,9.30
2023-02-13T18:30:19.328Z,9.30
2023-02-13T18:32:46.483Z,9.20
2023-02-13T18:35:13.192Z,9.20
2023-02-13T18:37:39.996Z,9.20
2023-02-13T18:40:08.075Z,9.10
2023-02-13T18:42:35.956Z,9.10
2023-02-13T18:45:03.305Z,9.00
2023-02-13T18:47:30.001Z,9.00
2023-02-13T18:49:56.738Z,9.00
2023-02-13T18:52:23.454Z,8.90
2023-02-13T18:54:50.181Z,8.90
2023-02-13T18:57:16.933Z,8.80
2023-02-13T18:59:43.609Z,8.80
2023-02-13T19:02:10.567Z,9.00
2023-02-13T19:04:38.218Z,8.70
2023-02-13T19:07:04.903Z,8.70
2023-02-13T19:09:32.028Z,8.70
2023-02-13T19:11:58.792Z,8.60
2023-02-13T19:14:26.712Z,8.50
2023-02-13T19:16:53.500Z,8.50
2023-02-13T19:19:20.135Z,8.50
2023-02-13T19:21:47.518Z,8.50
2023-02-13T19:24:15.566Z,8.40
2023-02-13T19:26:42.448Z,8.40
2023-02-13T19:29:09.123Z,8.30
2023-02-13T19:31:36.469Z,8.30
2023-02-13T19:34:05.757Z,8.20
2023-02-13T19:36:32.720Z,8.20
2023-02-13T19:39:03.331Z,8.10
2023-02-13T19:41:32.726Z,8.10
2023-02-13T19:44:00.901Z,8.10
2023-02-13T19:46:30.577Z,8.00
2023-02-13T19:48:57.886Z,8.00
2023-02-13T19:51:27.779Z,7.90
2023-02-13T19:53:58.593Z,7.90
2023-02-13T19:56:27.311Z,7.80
2023-02-13T19:58:54.105Z,7.80
2023-02-13T20:01:23.673Z,7.80
2023-02-13T20:03:50.892Z,7.70
2023-02-13T20:06:20.550Z,7.70
2023-02-13T20:08:47.637Z,7.60
2023-02-13T20:11:16.738Z,7.60
2023-02-13T20:13:43.812Z,7.50
2023-02-13T20:16:13.331Z,7.50
2023-02-13T20:18:41.026Z,7.50
2023-02-13T20:21:10.638Z,7.40
2023-02-13T20:23:37.552Z,7.40
2023-02-13T20:26:10.924Z,7.30
2023-02-13T20:28:38.349Z,7.30
2023-02-13T20:31:12.541Z,7.20
2023-02-13T20:33:40.342Z,7.20
2023-02-13T20:36:15.846Z,7.20
2023-02-13T20:38:43.136Z,7.10
2023-02-13T20:41:15.922Z,7.10
2023-02-13T20:43:42.917Z,7.00
2023-02-13T20:46:10.407Z,7.00
2023-02-13T20:48:41.440Z,7.00
2023-02-13T20:51:11.799Z,6.90
2023-02-13T20:53:39.199Z,6.90
2023-02-13T20:56:10.809Z,6.80
2023-02-13T20:58:38.385Z,6.80
2023-02-13T21:01:19.164Z,5.30
2023-02-13T21:03:48.326Z,6.70
2023-02-13T21:06:15.825Z,6.70
2023-02-13T21:08:43.735Z,6.60
2023-02-13T21:11:10.808Z,6.60
2023-02-13T21:13:40.279Z,6.60
2023-02-13T21:16:22.393Z,6.50
2023-02-13T21:18:53.723Z,6.50
2023-02-13T21:21:25.165Z,6.50
2023-02-13T21:23:56.394Z,6.40
2023-02-13T21:26:23.967Z,6.40
2023-02-13T21:28:52.064Z,6.40
2023-02-13T21:31:25.777Z,6.30
2023-02-13T21:33:53.022Z,6.30
2023-02-13T21:36:20.249Z,6.30
2023-02-13T21:38:47.036Z,6.20
2023-02-13T21:41:16.214Z,6.10
2023-02-13T21:43:46.730Z,6.10
2023-02-13T21:46:28.266Z,6.10
2023-02-13T21:48:59.986Z,6.10
2023-02-13T21:51:28.364Z,6.00
2023-02-13T21:53:55.233Z,6.00
2023-02-13T21:56:33.114Z,5.90
2023-02-13T21:58:59.823Z,5.90
2023-02-13T22:01:32.565Z,5.90
2023-02-13T22:04:01.428Z,5.80
2023-02-13T22:06:30.282Z,5.80
2023-02-13T22:09:02.084Z,5.80
2023-02-13T22:11:29.399Z,5.80
2023-02-13T22:13:58.633Z,5.70
2023-02-13T22:16:25.403Z,5.70
2023-02-13T22:18:52.116Z,5.70
2023-02-13T22:21:20.841Z,5.70
2023-02-13T22:23:48.170Z,5.60
2023-02-13T22:26:23.490Z,5.60
2023-02-13T22:28:50.934Z,5.60
2023-02-13T22:31:18.330Z,5.50
2023-02-13T22:33:49.839Z,5.50
2023-02-13T22:36:22.131Z,5.50
2023-02-13T22:38:50.053Z,5.40
2023-02-13T22:41:26.714Z,5.40
2023-02-13T22:43:53.734Z,5.30
2023-02-13T22:46:23.064Z,5.40
2023-02-13T22:48:52.301Z,5.30
2023-02-13T22:51:21.491Z,5.30
2023-02-13T22:53:50.989Z,5.30
2023-02-13T22:56:17.753Z,5.20
2023-02-13T22:58:44.376Z,5.20
2023-02-13T23:01:16.382Z,5.20
2023-02-13T23:03:43.329Z,5.10
2023-02-13T23:06:11.107Z,5.10
2023-02-13T23:08:38.604Z,5.10
2023-02-13T23:11:26.572Z,5.10
2023-02-13T23:13:53.293Z,5.00
2023-02-13T23:16:20.147Z,5.00
2023-02-13T23:18:57.249Z,5.00
2023-02-13T23:21:25.190Z,4.90
2023-02-13T23:23:51.943Z,4.90
2023-02-13T23:26:18.803Z,4.90
2023-02-13T23:28:45.604Z,4.80
2023-02-13T23:31:12.382Z,4.80
2023-02-13T23:33:39.137Z,4.80
2023-02-13T23:36:06.265Z,4.80
2023-02-13T23:38:32.927Z,4.70
2023-02-13T23:41:07.436Z,4.70
2023-02-13T23:43:34.133Z,4.70
2023-02-13T23:46:04.176Z,4.70
2023-02-13T23:48:31.364Z,4.60
2023-02-13T23:50:58.486Z,4.60
2023-02-13T23:53:25.617Z,4.60
2023-02-13T23:55:52.285Z,4.50
2023-02-13T23:58:18.957Z,4.50
